sensor_id;sensor_type;location;lat;lon;timestamp;P1;durP1;ratioP1;P2;durP2;ratioP2
82034;SDS011;71599;49.892;18.914;2023-11-19T00:00:42;23.75;;;10.23;;
82034;SDS011;71599;49.892;18.914;2023-11-19T00:06:04;21.85;;;10.02;;
82034;SDS011;71599;49.892;18.914;2023-11-19T00:11:05;27.60;;;13.93;;
82034;SDS011;71599;49.892;18.914;2023-11-19T00:16:08;27.92;;;14.02;;
82034;SDS011;71599;49.892;18.914;2023-11-19T00:21:09;27.73;;;11.98;;
82034;SDS011;71599;49.892;18.914;2023-11-19T00:26:10;25.10;;;11.82;;
82034;SDS011;71599;49.892;18.914;2023-11-19T00:31:12;26.67;;;13.32;;
82034;SDS011;71599;49.892;18.914;2023-11-19T00:36:13;24.95;;;11.77;;
82034;SDS011;71599;49.892;18.914;2023-11-19T00:41:14;26.90;;;12.52;;
82034;SDS011;71599;49.892;18.914;2023-11-19T00:46:17;31.95;;;14.88;;
82034;SDS011;71599;49.892;18.914;2023-11-19T00:51:18;29.40;;;14.43;;
82034;SDS011;71599;49.892;18.914;2023-11-19T00:56:19;33.95;;;16.13;;
82034;SDS011;71599;49.892;18.914;2023-11-19T01:01:21;29.05;;;14.30;;
82034;SDS011;71599;49.892;18.914;2023-11-19T01:06:28;23.15;;;12.57;;
82034;SDS011;71599;49.892;18.914;2023-11-19T01:11:30;30.85;;;14.25;;
82034;SDS011;71599;49.892;18.914;2023-11-19T01:16:33;37.20;;;15.32;;
82034;SDS011;71599;49.892;18.914;2023-11-19T01:21:34;36.53;;;15.20;;
82034;SDS011;71599;49.892;18.914;2023-11-19T01:26:35;42.38;;;19.20;;
82034;SDS011;71599;49.892;18.914;2023-11-19T01:31:37;33.05;;;15.13;;
82034;SDS011;71599;49.892;18.914;2023-11-19T01:36:38;37.20;;;16.88;;
82034;SDS011;71599;49.892;18.914;2023-11-19T01:41:39;38.88;;;18.85;;
82034;SDS011;71599;49.892;18.914;2023-11-19T01:46:41;47.28;;;20.90;;
82034;SDS011;71599;49.892;18.914;2023-11-19T01:51:44;35.72;;;19.05;;
82034;SDS011;71599;49.892;18.914;2023-11-19T01:56:46;36.47;;;17.92;;
82034;SDS011;71599;49.892;18.914;2023-11-19T02:01:49;31.00;;;15.68;;
82034;SDS011;71599;49.892;18.914;2023-11-19T02:06:50;35.92;;;17.20;;
82034;SDS011;71599;49.892;18.914;2023-11-19T02:11:54;35.47;;;17.52;;
82034;SDS011;71599;49.892;18.914;2023-11-19T02:16:57;40.33;;;17.67;;
82034;SDS011;71599;49.892;18.914;2023-11-19T02:21:58;36.15;;;18.55;;
82034;SDS011;71599;49.892;18.914;2023-11-19T02:26:59;34.58;;;17.60;;
82034;SDS011;71599;49.892;18.914;2023-11-19T02:32:07;34.33;;;17.58;;
82034;SDS011;71599;49.892;18.914;2023-11-19T02:37:08;35.00;;;17.10;;
82034;SDS011;71599;49.892;18.914;2023-11-19T02:42:09;35.75;;;16.67;;
82034;SDS011;71599;49.892;18.914;2023-11-19T02:47:12;35.03;;;18.15;;
82034;SDS011;71599;49.892;18.914;2023-11-19T02:52:13;33.13;;;15.90;;
82034;SDS011;71599;49.892;18.914;2023-11-19T02:57:14;41.58;;;19.13;;
82034;SDS011;71599;49.892;18.914;2023-11-19T03:02:16;44.65;;;22.50;;
82034;SDS011;71599;49.892;18.914;2023-11-19T03:07:17;46.67;;;26.70;;
82034;SDS011;71599;49.892;18.914;2023-11-19T03:12:18;51.13;;;25.02;;
82034;SDS011;71599;49.892;18.914;2023-11-19T03:17:20;48.10;;;24.30;;
82034;SDS011;71599;49.892;18.914;2023-11-19T03:22:21;47.60;;;23.65;;
82034;SDS011;71599;49.892;18.914;2023-11-19T03:27:22;49.28;;;24.42;;
82034;SDS011;71599;49.892;18.914;2023-11-19T03:32:25;45.00;;;21.27;;
82034;SDS011;71599;49.892;18.914;2023-11-19T03:37:26;43.28;;;23.02;;
82034;SDS011;71599;49.892;18.914;2023-11-19T03:42:27;48.08;;;23.80;;
82034;SDS011;71599;49.892;18.914;2023-11-19T03:47:29;52.60;;;26.35;;
82034;SDS011;71599;49.892;18.914;2023-11-19T03:52:30;51.38;;;25.63;;
82034;SDS011;71599;49.892;18.914;2023-11-19T03:57:31;49.60;;;26.13;;
82034;SDS011;71599;49.892;18.914;2023-11-19T04:02:33;51.88;;;25.13;;
82034;SDS011;71599;49.892;18.914;2023-11-19T04:07:34;56.60;;;28.08;;
82034;SDS011;71599;49.892;18.914;2023-11-19T04:12:35;47.92;;;25.42;;
82034;SDS011;71599;49.892;18.914;2023-11-19T04:17:38;59.25;;;28.23;;
82034;SDS011;71599;49.892;18.914;2023-11-19T04:22:38;49.15;;;24.73;;
82034;SDS011;71599;49.892;18.914;2023-11-19T04:27:40;60.42;;;29.23;;
82034;SDS011;71599;49.892;18.914;2023-11-19T04:32:42;59.90;;;27.55;;
82034;SDS011;71599;49.892;18.914;2023-11-19T04:37:43;58.20;;;31.20;;
82034;SDS011;71599;49.892;18.914;2023-11-19T04:42:44;50.30;;;24.38;;
82034;SDS011;71599;49.892;18.914;2023-11-19T04:47:46;59.60;;;31.17;;
82034;SDS011;71599;49.892;18.914;2023-11-19T04:52:47;56.92;;;27.95;;
82034;SDS011;71599;49.892;18.914;2023-11-19T04:57:48;61.08;;;31.15;;
82034;SDS011;71599;49.892;18.914;2023-11-19T05:02:50;63.50;;;32.08;;
82034;SDS011;71599;49.892;18.914;2023-11-19T05:07:52;48.13;;;25.30;;
82034;SDS011;71599;49.892;18.914;2023-11-19T05:12:53;54.15;;;27.83;;
82034;SDS011;71599;49.892;18.914;2023-11-19T05:17:55;59.80;;;31.20;;
82034;SDS011;71599;49.892;18.914;2023-11-19T05:22:56;61.67;;;31.40;;
82034;SDS011;71599;49.892;18.914;2023-11-19T05:27:57;57.30;;;28.95;;
82034;SDS011;71599;49.892;18.914;2023-11-19T05:32:59;55.50;;;27.40;;
82034;SDS011;71599;49.892;18.914;2023-11-19T05:38:00;47.75;;;24.55;;
82034;SDS011;71599;49.892;18.914;2023-11-19T05:43:01;63.90;;;31.98;;
82034;SDS011;71599;49.892;18.914;2023-11-19T05:48:03;66.95;;;32.67;;
82034;SDS011;71599;49.892;18.914;2023-11-19T05:53:04;66.38;;;33.85;;
82034;SDS011;71599;49.892;18.914;2023-11-19T05:58:05;57.88;;;32.28;;
82034;SDS011;71599;49.892;18.914;2023-11-19T06:03:08;62.10;;;30.48;;
82034;SDS011;71599;49.892;18.914;2023-11-19T06:08:09;61.15;;;32.20;;
82034;SDS011;71599;49.892;18.914;2023-11-19T06:13:10;57.15;;;29.75;;
82034;SDS011;71599;49.892;18.914;2023-11-19T06:18:12;61.65;;;29.90;;
82034;SDS011;71599;49.892;18.914;2023-11-19T06:23:13;55.72;;;28.75;;
82034;SDS011;71599;49.892;18.914;2023-11-19T06:28:14;64.75;;;29.85;;
82034;SDS011;71599;49.892;18.914;2023-11-19T06:33:16;55.80;;;30.80;;
82034;SDS011;71599;49.892;18.914;2023-11-19T06:38:17;61.50;;;30.75;;
82034;SDS011;71599;49.892;18.914;2023-11-19T06:43:18;51.20;;;27.67;;
82034;SDS011;71599;49.892;18.914;2023-11-19T06:48:21;60.13;;;30.42;;
82034;SDS011;71599;49.892;18.914;2023-11-19T06:53:21;68.32;;;36.05;;
82034;SDS011;71599;49.892;18.914;2023-11-19T06:58:22;91.50;;;42.60;;
82034;SDS011;71599;49.892;18.914;2023-11-19T07:03:25;95.07;;;44.60;;
82034;SDS011;71599;49.892;18.914;2023-11-19T07:08:26;118.00;;;57.65;;
82034;SDS011;71599;49.892;18.914;2023-11-19T07:13:27;74.85;;;38.13;;
82034;SDS011;71599;49.892;18.914;2023-11-19T07:18:29;71.68;;;35.13;;
82034;SDS011;71599;49.892;18.914;2023-11-19T07:23:30;76.30;;;36.20;;
82034;SDS011;71599;49.892;18.914;2023-11-19T07:28:31;72.45;;;35.92;;
82034;SDS011;71599;49.892;18.914;2023-11-19T07:33:33;65.53;;;31.73;;
82034;SDS011;71599;49.892;18.914;2023-11-19T07:38:34;60.72;;;29.45;;
82034;SDS011;71599;49.892;18.914;2023-11-19T07:43:35;42.80;;;23.92;;
82034;SDS011;71599;49.892;18.914;2023-11-19T07:48:38;52.58;;;25.77;;
82034;SDS011;71599;49.892;18.914;2023-11-19T07:53:39;176.40;;;81.78;;
82034;SDS011;71599;49.892;18.914;2023-11-19T07:58:40;73.10;;;39.58;;
82034;SDS011;71599;49.892;18.914;2023-11-19T08:03:42;166.48;;;73.72;;
82034;SDS011;71599;49.892;18.914;2023-11-19T08:08:43;212.60;;;96.95;;
82034;SDS011;71599;49.892;18.914;2023-11-19T08:13:44;143.70;;;65.90;;
82034;SDS011;71599;49.892;18.914;2023-11-19T08:18:46;126.43;;;58.33;;
82034;SDS011;71599;49.892;18.914;2023-11-19T08:23:47;91.18;;;46.83;;
82034;SDS011;71599;49.892;18.914;2023-11-19T08:28:48;115.57;;;56.78;;
82034;SDS011;71599;49.892;18.914;2023-11-19T08:33:50;120.85;;;60.75;;
82034;SDS011;71599;49.892;18.914;2023-11-19T08:38:51;83.82;;;45.90;;
82034;SDS011;71599;49.892;18.914;2023-11-19T08:43:52;82.78;;;46.63;;
82034;SDS011;71599;49.892;18.914;2023-11-19T08:48:55;66.28;;;33.60;;
82034;SDS011;71599;49.892;18.914;2023-11-19T08:53:56;52.03;;;28.77;;
82034;SDS011;71599;49.892;18.914;2023-11-19T08:58:57;43.58;;;23.30;;
82034;SDS011;71599;49.892;18.914;2023-11-19T09:03:59;23.80;;;14.52;;
82034;SDS011;71599;49.892;18.914;2023-11-19T09:09:00;8.50;;;4.88;;
82034;SDS011;71599;49.892;18.914;2023-11-19T09:14:01;8.50;;;3.92;;
82034;SDS011;71599;49.892;18.914;2023-11-19T09:19:04;7.90;;;4.50;;
82034;SDS011;71599;49.892;18.914;2023-11-19T09:24:05;6.32;;;4.20;;
82034;SDS011;71599;49.892;18.914;2023-11-19T09:29:06;9.75;;;4.78;;
82034;SDS011;71599;49.892;18.914;2023-11-19T09:34:08;10.00;;;4.68;;
82034;SDS011;71599;49.892;18.914;2023-11-19T09:39:09;8.93;;;4.50;;
82034;SDS011;71599;49.892;18.914;2023-11-19T09:44:10;8.50;;;4.32;;
82034;SDS011;71599;49.892;18.914;2023-11-19T09:49:12;8.68;;;4.57;;
82034;SDS011;71599;49.892;18.914;2023-11-19T09:54:14;7.82;;;3.95;;
82034;SDS011;71599;49.892;18.914;2023-11-19T09:59:16;6.93;;;4.45;;
82034;SDS011;71599;49.892;18.914;2023-11-19T10:04:18;6.10;;;3.80;;
82034;SDS011;71599;49.892;18.914;2023-11-19T10:09:19;7.07;;;4.03;;
82034;SDS011;71599;49.892;18.914;2023-11-19T10:14:21;6.47;;;4.43;;
82034;SDS011;71599;49.892;18.914;2023-11-19T10:19:25;7.97;;;4.80;;
82034;SDS011;71599;49.892;18.914;2023-11-19T10:24:33;7.10;;;3.75;;
82034;SDS011;71599;49.892;18.914;2023-11-19T10:29:35;5.95;;;3.55;;
82034;SDS011;71599;49.892;18.914;2023-11-19T10:34:38;7.70;;;4.40;;
82034;SDS011;71599;49.892;18.914;2023-11-19T10:39:51;8.75;;;3.85;;
82034;SDS011;71599;49.892;18.914;2023-11-19T10:44:53;6.10;;;3.47;;
82034;SDS011;71599;49.892;18.914;2023-11-19T10:49:55;6.10;;;3.33;;
82034;SDS011;71599;49.892;18.914;2023-11-19T10:54:56;7.00;;;3.78;;
82034;SDS011;71599;49.892;18.914;2023-11-19T11:00:02;6.25;;;3.25;;
82034;SDS011;71599;49.892;18.914;2023-11-19T11:05:05;4.78;;;3.38;;
82034;SDS011;71599;49.892;18.914;2023-11-19T11:10:08;7.20;;;3.85;;
82034;SDS011;71599;49.892;18.914;2023-11-19T11:15:10;6.30;;;4.07;;
82034;SDS011;71599;49.892;18.914;2023-11-19T11:20:13;6.85;;;4.55;;
82034;SDS011;71599;49.892;18.914;2023-11-19T11:25:19;7.93;;;4.55;;
82034;SDS011;71599;49.892;18.914;2023-11-19T11:30:38;7.97;;;4.47;;
82034;SDS011;71599;49.892;18.914;2023-11-19T11:35:53;8.98;;;4.57;;
82034;SDS011;71599;49.892;18.914;2023-11-19T11:51:59;20.98;;;8.98;;
82034;SDS011;71599;49.892;18.914;2023-11-19T11:57:01;8.35;;;5.10;;
82034;SDS011;71599;49.892;18.914;2023-11-19T12:02:03;14.10;;;6.63;;
82034;SDS011;71599;49.892;18.914;2023-11-19T12:07:11;6.88;;;4.35;;
82034;SDS011;71599;49.892;18.914;2023-11-19T12:12:21;10.90;;;5.50;;
82034;SDS011;71599;49.892;18.914;2023-11-19T12:22:51;7.68;;;4.22;;
82034;SDS011;71599;49.892;18.914;2023-11-19T12:27:53;8.25;;;4.93;;
82034;SDS011;71599;49.892;18.914;2023-11-19T12:32:54;8.35;;;4.40;;
82034;SDS011;71599;49.892;18.914;2023-11-19T12:37:56;14.80;;;6.90;;
82034;SDS011;71599;49.892;18.914;2023-11-19T12:42:57;9.63;;;5.40;;
82034;SDS011;71599;49.892;18.914;2023-11-19T12:48:04;25.35;;;10.55;;
82034;SDS011;71599;49.892;18.914;2023-11-19T12:53:10;20.25;;;8.73;;
82034;SDS011;71599;49.892;18.914;2023-11-19T12:58:15;9.77;;;4.70;;
82034;SDS011;71599;49.892;18.914;2023-11-19T13:03:31;9.07;;;5.15;;
82034;SDS011;71599;49.892;18.914;2023-11-19T13:08:37;8.02;;;4.97;;
82034;SDS011;71599;49.892;18.914;2023-11-19T13:19:05;12.20;;;5.30;;
82034;SDS011;71599;49.892;18.914;2023-11-19T13:24:07;11.45;;;6.85;;
82034;SDS011;71599;49.892;18.914;2023-11-19T13:29:09;17.33;;;8.30;;
82034;SDS011;71599;49.892;18.914;2023-11-19T13:34:10;13.73;;;6.68;;
82034;SDS011;71599;49.892;18.914;2023-11-19T13:39:12;11.63;;;5.82;;
82034;SDS011;71599;49.892;18.914;2023-11-19T13:44:13;9.13;;;4.60;;
82034;SDS011;71599;49.892;18.914;2023-11-19T13:49:14;12.27;;;5.70;;
82034;SDS011;71599;49.892;18.914;2023-11-19T13:54:17;12.65;;;5.10;;
82034;SDS011;71599;49.892;18.914;2023-11-19T13:59:18;7.03;;;4.43;;
82034;SDS011;71599;49.892;18.914;2023-11-19T14:04:19;9.02;;;5.10;;
82034;SDS011;71599;49.892;18.914;2023-11-19T14:14:22;19.27;;;7.53;;
82034;SDS011;71599;49.892;18.914;2023-11-19T14:19:23;13.40;;;5.15;;
82034;SDS011;71599;49.892;18.914;2023-11-19T14:24:26;31.75;;;10.52;;
82034;SDS011;71599;49.892;18.914;2023-11-19T14:29:27;30.73;;;11.32;;
82034;SDS011;71599;49.892;18.914;2023-11-19T14:34:29;23.50;;;8.75;;
82034;SDS011;71599;49.892;18.914;2023-11-19T14:39:31;11.55;;;4.30;;
82034;SDS011;71599;49.892;18.914;2023-11-19T14:44:32;8.73;;;4.50;;
82034;SDS011;71599;49.892;18.914;2023-11-19T14:49:34;11.13;;;5.88;;
82034;SDS011;71599;49.892;18.914;2023-11-19T14:59:37;13.30;;;5.90;;
82034;SDS011;71599;49.892;18.914;2023-11-19T15:04:38;9.55;;;4.72;;
82034;SDS011;71599;49.892;18.914;2023-11-19T15:09:41;10.95;;;5.47;;
82034;SDS011;71599;49.892;18.914;2023-11-19T15:14:42;6.55;;;3.53;;
82034;SDS011;71599;49.892;18.914;2023-11-19T15:19:43;6.75;;;3.80;;
82034;SDS011;71599;49.892;18.914;2023-11-19T15:24:45;6.40;;;3.30;;
82034;SDS011;71599;49.892;18.914;2023-11-19T15:29:46;6.70;;;4.18;;
82034;SDS011;71599;49.892;18.914;2023-11-19T15:34:47;19.40;;;7.60;;
82034;SDS011;71599;49.892;18.914;2023-11-19T15:39:50;11.35;;;6.65;;
82034;SDS011;71599;49.892;18.914;2023-11-19T15:44:51;18.02;;;8.13;;
82034;SDS011;71599;49.892;18.914;2023-11-19T15:49:52;22.48;;;10.75;;
82034;SDS011;71599;49.892;18.914;2023-11-19T15:54:54;18.98;;;8.85;;
82034;SDS011;71599;49.892;18.914;2023-11-19T15:59:55;20.33;;;8.68;;
82034;SDS011;71599;49.892;18.914;2023-11-19T16:04:56;16.77;;;7.68;;
82034;SDS011;71599;49.892;18.914;2023-11-19T16:09:59;19.98;;;8.05;;
82034;SDS011;71599;49.892;18.914;2023-11-19T16:15:00;10.38;;;5.55;;
82034;SDS011;71599;49.892;18.914;2023-11-19T16:20:01;9.55;;;5.40;;
82034;SDS011;71599;49.892;18.914;2023-11-19T16:25:04;7.57;;;4.03;;
82034;SDS011;71599;49.892;18.914;2023-11-19T16:30:06;8.85;;;4.38;;
82034;SDS011;71599;49.892;18.914;2023-11-19T16:35:08;9.68;;;4.47;;
82034;SDS011;71599;49.892;18.914;2023-11-19T16:40:12;9.13;;;4.55;;
82034;SDS011;71599;49.892;18.914;2023-11-19T16:45:14;7.10;;;4.47;;
82034;SDS011;71599;49.892;18.914;2023-11-19T16:50:16;6.75;;;3.40;;
82034;SDS011;71599;49.892;18.914;2023-11-19T16:55:19;9.27;;;4.75;;
82034;SDS011;71599;49.892;18.914;2023-11-19T17:00:20;17.38;;;8.73;;
82034;SDS011;71599;49.892;18.914;2023-11-19T17:05:21;14.18;;;7.07;;
82034;SDS011;71599;49.892;18.914;2023-11-19T17:10:24;10.57;;;5.03;;
82034;SDS011;71599;49.892;18.914;2023-11-19T17:15:25;16.25;;;7.38;;
82034;SDS011;71599;49.892;18.914;2023-11-19T17:20:26;23.80;;;10.02;;
82034;SDS011;71599;49.892;18.914;2023-11-19T17:25:28;23.33;;;8.32;;
82034;SDS011;71599;49.892;18.914;2023-11-19T17:30:31;11.30;;;5.95;;
82034;SDS011;71599;49.892;18.914;2023-11-19T17:35:32;10.60;;;5.50;;
82034;SDS011;71599;49.892;18.914;2023-11-19T17:40:35;9.18;;;4.00;;
82034;SDS011;71599;49.892;18.914;2023-11-19T17:45:37;9.32;;;4.75;;
82034;SDS011;71599;49.892;18.914;2023-11-19T17:50:38;7.40;;;4.50;;
82034;SDS011;71599;49.892;18.914;2023-11-19T17:55:40;13.15;;;6.18;;
82034;SDS011;71599;49.892;18.914;2023-11-19T18:00:41;17.30;;;7.85;;
82034;SDS011;71599;49.892;18.914;2023-11-19T18:05:43;13.35;;;6.82;;
82034;SDS011;71599;49.892;18.914;2023-11-19T18:10:46;36.97;;;14.20;;
82034;SDS011;71599;49.892;18.914;2023-11-19T18:15:47;12.15;;;7.55;;
82034;SDS011;71599;49.892;18.914;2023-11-19T18:20:48;22.15;;;10.18;;
82034;SDS011;71599;49.892;18.914;2023-11-19T18:25:51;22.23;;;8.65;;
82034;SDS011;71599;49.892;18.914;2023-11-19T18:30:52;16.55;;;7.68;;
82034;SDS011;71599;49.892;18.914;2023-11-19T18:35:53;13.70;;;6.07;;
82034;SDS011;71599;49.892;18.914;2023-11-19T18:40:55;22.15;;;10.98;;
82034;SDS011;71599;49.892;18.914;2023-11-19T18:45:56;28.58;;;11.02;;
82034;SDS011;71599;49.892;18.914;2023-11-19T18:50:57;23.50;;;10.60;;
82034;SDS011;71599;49.892;18.914;2023-11-19T18:56:00;13.90;;;7.03;;
82034;SDS011;71599;49.892;18.914;2023-11-19T19:01:01;13.68;;;7.15;;
82034;SDS011;71599;49.892;18.914;2023-11-19T19:06:02;17.10;;;8.80;;
82034;SDS011;71599;49.892;18.914;2023-11-19T19:16:06;13.70;;;6.07;;
82034;SDS011;71599;49.892;18.914;2023-11-19T19:21:08;10.90;;;6.72;;
82034;SDS011;71599;49.892;18.914;2023-11-19T19:26:13;11.75;;;6.43;;
82034;SDS011;71599;49.892;18.914;2023-11-19T19:31:14;10.75;;;6.80;;
82034;SDS011;71599;49.892;18.914;2023-11-19T19:46:18;14.30;;;7.75;;
82034;SDS011;71599;49.892;18.914;2023-11-19T19:51:19;20.60;;;9.23;;
82034;SDS011;71599;49.892;18.914;2023-11-19T19:56:22;25.30;;;9.40;;
82034;SDS011;71599;49.892;18.914;2023-11-19T20:01:23;17.13;;;8.65;;
82034;SDS011;71599;49.892;18.914;2023-11-19T20:06:24;13.85;;;7.45;;
82034;SDS011;71599;49.892;18.914;2023-11-19T20:11:29;18.75;;;8.73;;
82034;SDS011;71599;49.892;18.914;2023-11-19T20:16:30;20.67;;;8.95;;
82034;SDS011;71599;49.892;18.914;2023-11-19T20:21:31;18.58;;;8.55;;
82034;SDS011;71599;49.892;18.914;2023-11-19T20:26:33;18.77;;;9.48;;
82034;SDS011;71599;49.892;18.914;2023-11-19T20:31:35;14.80;;;8.40;;
82034;SDS011;71599;49.892;18.914;2023-11-19T20:36:40;36.42;;;20.30;;
82034;SDS011;71599;49.892;18.914;2023-11-19T20:41:43;18.58;;;8.07;;
82034;SDS011;71599;49.892;18.914;2023-11-19T20:46:44;59.70;;;22.95;;
82034;SDS011;71599;49.892;18.914;2023-11-19T20:51:45;49.10;;;15.73;;
82034;SDS011;71599;49.892;18.914;2023-11-19T20:56:47;33.50;;;14.05;;
82034;SDS011;71599;49.892;18.914;2023-11-19T21:01:48;37.13;;;13.93;;
82034;SDS011;71599;49.892;18.914;2023-11-19T21:06:50;32.97;;;12.75;;
82034;SDS011;71599;49.892;18.914;2023-11-19T21:11:52;24.70;;;9.20;;
82034;SDS011;71599;49.892;18.914;2023-11-19T21:16:53;16.63;;;7.60;;
82034;SDS011;71599;49.892;18.914;2023-11-19T21:21:54;20.25;;;9.10;;
82034;SDS011;71599;49.892;18.914;2023-11-19T21:26:57;16.83;;;8.55;;
82034;SDS011;71599;49.892;18.914;2023-11-19T21:31:57;14.95;;;6.78;;
82034;SDS011;71599;49.892;18.914;2023-11-19T21:36:58;16.95;;;8.02;;
82034;SDS011;71599;49.892;18.914;2023-11-19T21:42:01;30.60;;;12.57;;
82034;SDS011;71599;49.892;18.914;2023-11-19T21:47:02;23.77;;;11.18;;
82034;SDS011;71599;49.892;18.914;2023-11-19T21:52:03;26.23;;;10.43;;
82034;SDS011;71599;49.892;18.914;2023-11-19T21:57:06;27.25;;;10.48;;
82034;SDS011;71599;49.892;18.914;2023-11-19T22:02:07;19.98;;;8.20;;
82034;SDS011;71599;49.892;18.914;2023-11-19T22:07:08;19.63;;;9.02;;
82034;SDS011;71599;49.892;18.914;2023-11-19T22:12:10;12.43;;;7.60;;
82034;SDS011;71599;49.892;18.914;2023-11-19T22:17:11;11.13;;;6.97;;
82034;SDS011;71599;49.892;18.914;2023-11-19T22:22:12;9.63;;;5.93;;
82034;SDS011;71599;49.892;18.914;2023-11-19T22:27:15;11.98;;;6.07;;
82034;SDS011;71599;49.892;18.914;2023-11-19T22:32:16;15.68;;;7.10;;
82034;SDS011;71599;49.892;18.914;2023-11-19T22:37:17;10.38;;;5.10;;
82034;SDS011;71599;49.892;18.914;2023-11-19T22:42:19;21.70;;;9.35;;
82034;SDS011;71599;49.892;18.914;2023-11-19T22:47:20;17.85;;;8.27;;
82034;SDS011;71599;49.892;18.914;2023-11-19T22:52:21;14.98;;;6.50;;
82034;SDS011;71599;49.892;18.914;2023-11-19T22:57:23;12.85;;;6.72;;
82034;SDS011;71599;49.892;18.914;2023-11-19T23:02:24;12.18;;;5.45;;
82034;SDS011;71599;49.892;18.914;2023-11-19T23:07:25;9.13;;;4.45;;
82034;SDS011;71599;49.892;18.914;2023-11-19T23:12:27;9.90;;;4.00;;
82034;SDS011;71599;49.892;18.914;2023-11-19T23:17:28;7.88;;;3.60;;
82034;SDS011;71599;49.892;18.914;2023-11-19T23:22:29;7.03;;;4.00;;
82034;SDS011;71599;49.892;18.914;2023-11-19T23:27:32;10.00;;;4.93;;
82034;SDS011;71599;49.892;18.914;2023-11-19T23:32:33;5.93;;;4.15;;
82034;SDS011;71599;49.892;18.914;2023-11-19T23:37:34;8.43;;;4.40;;
82034;SDS011;71599;49.892;18.914;2023-11-19T23:42:36;14.00;;;5.45;;
82034;SDS011;71599;49.892;18.914;2023-11-19T23:47:37;11.15;;;4.72;;
82034;SDS011;71599;49.892;18.914;2023-11-19T23:52:38;9.23;;;4.65;;
82034;SDS011;71599;49.892;18.914;2023-11-19T23:57:41;8.68;;;4.47;;
